Archiv-/Tagesdaten

--Timestamp---	Temp	Chill	HIndex	Humid	Dewpt	Wind	HiWind	WindDir	Rain	Barom	        Solar	ET	UV
--------------	----	-----	------	-----	-----	----	------	-------	----	-----	        -----	--	--
20090211 00:05	1.3	-2.7	1.3	85	-0.9	14	27	247	0.00	1003.559	0	0.000	0
20090211 00:10	1.3	-3.2	1.3	85	-0.9	18	35	247	0.00	1003.627	0	0.000	0
20090211 00:15	1.2	-3.6	1.2	86	-0.9	19	35	270	0.20	1003.762	0	0.000	0
20090211 00:20	1.1	-2.9	1.1	87	-0.8	14	31	247	0.00	1003.864	0	0.000	0
20090211 00:25	1.0	-3.6	1.0	87	-0.9	18	34	247	0.00	1003.864	0	0.000	0
20090211 00:30	0.9	-3.7	0.9	87	-1.0	18	37	270	0.00	1003.932	0	0.000	0
20090211 00:35	0.9	-3.8	0.9	87	-1.0	18	37	270	0.00	1003.965	0	0.000	0
20090211 00:40	0.8	-3.8	0.8	87	-1.1	18	32	247	0.00	1004.033	0	0.000	0
20090211 00:45	0.9	-4.0	0.9	86	-1.2	19	35	270	0.00	1004.236	0	0.000	0
20090211 00:50	0.9	-3.5	0.9	86	-1.2	16	32	270	0.00	1004.203	0	0.000	0
20090211 00:55	0.9	-3.9	0.9	84	-1.5	19	35	270	0.00	1004.338	0	0.000	0
20090211 01:00	1.0	-4.1	1.0	83	-1.6	21	32	247	0.00	1004.372	0	0.020	0
20090211 01:05	1.1	-3.7	1.1	82	-1.6	19	37	270	0.00	1004.338	0	0.000	0
20090211 01:10	1.1	-3.5	1.1	81	-1.8	18	29	247	0.00	1004.338	0	0.000	0
20090211 01:15	1.2	-3.7	1.2	80	-1.9	19	39	247	0.00	1004.440	0	0.000	0
20090211 01:20	1.2	-3.6	1.2	80	-1.8	19	34	247	0.00	1004.406	0	0.000	0
20090211 01:25	1.3	-3.0	1.3	80	-1.8	16	39	247	0.00	1004.372	0	0.000	0
20090211 01:30	1.3	-3.3	1.3	79	-2.0	18	31	247	0.00	1004.541	0	0.000	0
20090211 01:35	1.3	-3.2	1.3	78	-2.1	18	32	247	0.00	1004.677	0	0.000	0
20090211 01:40	1.3	-2.9	1.3	78	-2.1	16	35	247	0.00	1004.575	0	0.000	0
20090211 01:45	1.3	-2.7	1.3	78	-2.1	14	26	247	0.00	1004.677	0	0.000	0
20090211 01:50	1.3	-3.2	1.3	78	-2.1	18	31	270	0.00	1004.744	0	0.000	0
20090211 01:55	1.3	-3.4	1.3	77	-2.3	19	37	247	0.00	1004.711	0	0.000	0
20090211 02:00	1.4	-3.5	1.4	76	-2.3	21	43	270	0.00	1004.744	0	0.020	0
20090211 02:05	1.5	-3.2	1.5	77	-2.1	19	39	247	0.00	1004.711	0	0.000	0
20090211 02:10	1.4	-2.9	1.4	77	-2.2	16	27	247	0.00	1004.643	0	0.000	0
20090211 02:15	1.4	-3.5	1.4	76	-2.3	21	37	247	0.00	1004.711	0	0.000	0
20090211 02:20	1.4	-3.3	1.4	76	-2.3	19	34	247	0.00	1004.711	0	0.000	0
20090211 02:25	1.4	-3.1	1.4	77	-2.2	18	37	247	0.00	1004.778	0	0.000	0
20090211 02:30	1.3	-3.7	1.3	77	-2.3	21	34	247	0.00	1004.914	0	0.000	0
20090211 02:35	1.3	-3.2	1.3	78	-2.1	18	32	270	0.00	1005.049	0	0.000	0
20090211 02:40	1.3	-2.9	1.3	78	-2.1	16	29	247	0.00	1004.914	0	0.000	0
20090211 02:45	1.3	-3.2	1.3	79	-1.9	18	34	247	0.00	1005.117	0	0.000	0
20090211 02:50	1.3	-3.0	1.3	78	-2.1	16	27	270	0.00	1005.151	0	0.000	0
20090211 02:55	1.3	-3.3	1.3	78	-2.1	18	32	270	0.00	1005.185	0	0.000	0
20090211 03:00	1.3	-3.0	1.3	77	-2.3	16	27	270	0.00	1005.252	0	0.020	0
20090211 03:05	1.3	-2.9	1.3	77	-2.3	16	32	247	0.00	1005.422	0	0.000	0
20090211 03:10	1.3	-3.4	1.3	76	-2.4	19	34	247	0.00	1005.388	0	0.000	0
20090211 03:15	1.3	-3.2	1.3	75	-2.6	18	35	247	0.00	1005.523	0	0.000	0
20090211 03:20	1.3	-3.7	1.3	74	-2.8	21	39	247	0.00	1005.591	0	0.000	0
20090211 03:25	1.3	-3.5	1.3	75	-2.7	19	37	270	0.00	1005.591	0	0.000	0
20090211 03:30	1.2	-3.8	1.2	74	-2.9	21	39	247	0.00	1005.726	0	0.000	0
20090211 03:35	1.3	-3.3	1.3	74	-2.8	18	32	270	0.00	1005.693	0	0.000	0
20090211 03:40	1.3	-3.3	1.3	74	-2.8	18	35	247	0.00	1005.794	0	0.000	0
20090211 03:45	1.3	-3.2	1.3	74	-2.8	18	32	270	0.00	1005.896	0	0.000	0
20090211 03:50	1.3	-3.3	1.3	76	-2.5	18	32	247	0.00	1005.930	0	0.000	0
20090211 03:55	1.2	-3.4	1.2	77	-2.4	18	31	270	0.00	1006.065	0	0.000	0
20090211 04:00	1.1	-3.6	1.1	77	-2.5	18	37	270	0.00	1005.997	0	0.020	0
20090211 04:05	1.0	-3.6	1.0	77	-2.6	18	34	270	0.00	1006.167	0	0.000	0
20090211 04:10	1.0	-3.6	1.0	76	-2.7	18	31	270	0.00	1006.167	0	0.000	0
20090211 04:15	0.9	-3.7	0.9	76	-2.8	18	29	270	0.00	1006.201	0	0.000	0
20090211 04:20	0.9	-3.9	0.9	77	-2.6	19	37	247	0.00	1006.201	0	0.000	0
20090211 04:25	0.8	-4.3	0.8	77	-2.7	21	35	247	0.00	1006.234	0	0.000	0
20090211 04:30	0.8	-3.6	0.8	78	-2.6	16	32	270	0.00	1006.505	0	0.000	0
20090211 04:35	0.7	-4.0	0.7	78	-2.7	18	31	247	0.00	1006.539	0	0.000	0
20090211 04:40	0.6	-4.4	0.6	79	-2.6	19	34	247	0.00	1006.708	0	0.000	0
20090211 04:45	0.6	-3.9	0.6	79	-2.7	16	32	270	0.00	1006.810	0	0.000	0
20090211 04:50	0.4	-4.8	0.4	80	-2.6	21	39	270	0.00	1006.844	0	0.000	0
20090211 04:55	0.3	-4.5	0.3	81	-2.5	18	27	270	0.00	1006.844	0	0.000	0
20090211 05:00	0.3	-4.5	0.3	82	-2.4	18	35	270	0.00	1006.878	0	0.020	0
20090211 05:05	0.2	-4.4	0.2	83	-2.4	16	31	270	0.00	1007.149	0	0.000	0
20090211 05:10	0.0	-4.6	0.0	84	-2.4	16	29	270	0.00	1007.149	0	0.000	0
20090211 05:15	-0.1	-4.0	-0.1	85	-2.3	13	23	270	0.00	1007.216	0	0.000	0
20090211 05:20	-0.1	-4.0	-0.1	85	-2.3	13	24	270	0.00	1007.250	0	0.000	0
20090211 05:25	-0.1	-4.0	-0.1	84	-2.4	13	24	247	0.00	1007.284	0	0.000	0
20090211 05:30	0.0	-4.6	0.0	84	-2.4	16	29	270	0.00	1007.250	0	0.000	0
20090211 05:35	0.1	-4.2	0.1	84	-2.3	14	27	247	0.00	1007.352	0	0.000	0
20090211 05:40	0.1	-4.5	0.1	83	-2.5	16	32	247	0.00	1007.453	0	0.000	0
20090211 05:45	0.1	-4.2	0.1	83	-2.4	14	26	270	0.00	1007.555	0	0.000	0
20090211 05:50	0.1	-4.2	0.1	83	-2.4	14	32	270	0.00	1007.623	0	0.000	0
20090211 05:55	0.1	-4.7	0.1	83	-2.4	18	31	270	0.00	1007.657	0	0.000	0
20090211 06:00	0.1	-4.5	0.1	83	-2.5	16	29	247	0.00	1007.589	0	0.020	0
20090211 06:05	-0.1	-4.4	-0.1	83	-2.6	14	29	247	0.00	1007.657	0	0.000	0
20090211 06:10	-0.1	-4.4	-0.1	83	-2.6	14	27	247	0.00	1007.690	0	0.000	0
20090211 06:15	-0.1	-4.4	-0.1	83	-2.6	14	27	270	0.00	1007.690	0	0.000	0
20090211 06:20	0.0	-4.3	0.0	83	-2.5	14	24	270	0.00	1007.690	0	0.000	0
20090211 06:25	0.0	-4.3	0.0	82	-2.7	14	26	270	0.00	1007.690	0	0.000	0
20090211 06:30	0.0	-4.6	0.0	81	-2.9	16	32	247	0.00	1007.826	0	0.000	0
20090211 06:35	0.0	-4.6	0.0	82	-2.7	16	31	270	0.00	1007.724	0	0.000	0
20090211 06:40	0.0	-5.4	0.0	81	-2.9	21	35	270	0.00	1007.860	0	0.000	0
20090211 06:45	0.0	-4.3	0.0	82	-2.7	14	26	247	0.00	1007.826	0	0.000	0
20090211 06:50	-0.1	-4.4	-0.1	83	-2.6	14	29	270	0.00	1007.826	0	0.000	0
20090211 06:55	-0.1	-4.4	-0.1	83	-2.6	14	32	247	0.00	1007.928	0	0.000	0
20090211 07:00	-0.2	-4.5	-0.2	84	-2.5	14	27	247	0.00	1007.961	0	0.020	0
20090211 07:05	-0.2	-4.5	-0.2	84	-2.5	14	29	247	0.00	1008.334	0	0.000	0
20090211 07:10	-0.2	-4.5	-0.2	83	-2.7	14	29	270	0.00	1008.334	0	0.000	0
20090211 07:15	-0.1	-4.7	-0.1	83	-2.6	16	27	247	0.00	1008.435	0	0.000	0
20090211 07:20	-0.2	-4.8	-0.2	83	-2.7	16	34	270	0.00	1008.537	0	0.000	0
20090211 07:25	-0.2	-4.8	-0.2	83	-2.7	16	29	270	0.00	1008.605	0	0.000	0
20090211 07:30	-0.2	-4.5	-0.2	84	-2.5	14	26	270	0.00	1008.639	0	0.000	0
20090211 07:35	-0.2	-5.1	-0.2	84	-2.6	18	39	270	0.00	1008.639	0	0.000	0
20090211 07:40	-0.3	-4.9	-0.3	85	-2.5	16	29	270	0.00	1008.706	1	0.000	0
20090211 07:45	-0.3	-4.7	-0.3	86	-2.4	14	26	270	0.00	1008.910	5	0.000	0
20090211 07:50	-0.4	-4.4	-0.4	86	-2.4	13	24	270	0.00	1008.943	7	0.000	0
20090211 07:55	-0.4	-4.8	-0.4	86	-2.5	14	26	270	0.00	1009.011	9	0.000	0
20090211 08:00	-0.5	-5.2	-0.5	87	-2.4	16	27	270	0.00	1009.113	10	0.020	0
20090211 08:05	-0.5	-5.5	-0.5	87	-2.4	18	39	270	0.00	1009.045	13	0.000	0
20090211 08:10	-0.6	-5.0	-0.6	87	-2.4	14	32	270	0.00	1009.113	18	0.000	0
20090211 08:15	-0.6	-5.4	-0.6	87	-2.5	16	27	270	0.00	1009.181	22	0.000	0
20090211 08:20	-0.7	-5.1	-0.7	88	-2.4	14	26	270	0.00	1009.282	20	0.000	0
20090211 08:25	-0.7	-4.8	-0.7	88	-2.4	13	26	270	0.00	1009.316	22	0.000	0
20090211 08:30	-0.7	-4.4	-0.7	88	-2.4	11	21	247	0.00	1009.418	29	0.000	0
20090211 08:35	-0.7	-5.2	-0.7	88	-2.5	14	26	247	0.00	1009.485	36	0.000	0
20090211 08:40	-0.7	-5.5	-0.7	88	-2.5	16	31	270	0.00	1009.519	47	0.000	0
20090211 08:45	-0.7	-4.4	-0.7	88	-2.4	11	23	270	0.00	1009.553	51	0.000	0
20090211 08:50	-0.6	-4.7	-0.6	87	-2.5	13	26	247	0.00	1009.553	59	0.000	0
20090211 08:55	-0.6	-5.3	-0.6	86	-2.6	16	29	270	0.00	1009.688	65	0.000	0
20090211 09:00	-0.5	-4.9	-0.5	85	-2.7	14	27	270	0.00	1009.688	69	0.020	0
20090211 09:05	-0.4	-4.8	-0.4	84	-2.8	14	24	247	0.00	1009.756	67	0.000	0
20090211 09:10	-0.4	-5.6	-0.4	84	-2.8	19	31	270	0.00	1009.688	85	0.000	0
20090211 09:15	-0.3	-4.7	-0.3	83	-2.9	14	31	270	0.00	1009.858	83	0.000	0
20090211 09:20	-0.3	-4.4	-0.3	83	-2.9	13	26	270	0.00	1009.858	83	0.000	0
20090211 09:25	-0.3	-5.0	-0.3	83	-2.9	16	27	270	0.00	1009.959	84	0.000	0
20090211 09:30	-0.3	-4.6	-0.3	83	-2.8	14	27	270	0.00	1009.959	75	0.000	0
20090211 09:35	-0.3	-4.6	-0.3	82	-3.0	14	29	270	0.00	1010.095	57	0.000	0
20090211 09:40	-0.3	-4.9	-0.3	82	-3.0	16	26	270	0.00	1010.196	55	0.000	0
20090211 09:45	-0.3	-4.6	-0.3	82	-3.0	14	27	270	0.00	1010.230	71	0.000	0
20090211 09:50	-0.2	-4.9	-0.2	82	-2.9	16	34	270	0.00	1010.196	77	0.000	0
20090211 09:55	-0.2	-4.8	-0.2	81	-3.0	16	29	270	0.00	1010.264	86	0.000	0
20090211 10:00	-0.1	-5.0	-0.1	81	-3.0	18	39	270	0.00	1010.298	99	0.040	0
20090211 10:05	-0.1	-5.3	-0.1	80	-3.1	19	34	270	0.00	1010.501	74	0.000	0
20090211 10:10	-0.1	-5.3	-0.1	81	-3.0	19	32	270	0.00	1010.535	66	0.000	0
20090211 10:15	-0.2	-5.1	-0.2	82	-2.9	18	27	270	0.00	1010.603	73	0.000	0
20090211 10:20	-0.4	-5.4	-0.4	84	-2.8	18	29	270	0.00	1010.806	75	0.000	0
20090211 10:25	-0.6	-5.3	-0.6	85	-2.8	16	27	270	0.00	1010.908	63	0.000	0
20090211 10:30	-0.6	-5.6	-0.6	84	-2.9	18	26	270	0.00	1010.908	92	0.000	0
20090211 10:35	-0.4	-5.1	-0.4	83	-3.0	16	29	270	0.00	1010.975	124	0.000	0
20090211 10:40	-0.3	-5.0	-0.3	82	-3.0	16	27	270	0.00	1011.077	121	0.000	0
20090211 10:45	-0.2	-4.9	-0.2	81	-3.1	16	27	270	0.00	1011.009	69	0.000	0
20090211 10:50	-0.2	-5.1	-0.2	81	-3.0	18	34	270	0.00	1011.179	119	0.000	0
20090211 10:55	-0.1	-5.3	-0.1	81	-3.0	19	31	270	0.00	1011.348	132	0.000	0
20090211 11:00	-0.1	-4.1	-0.1	82	-2.8	13	23	270	0.00	1011.077	125	0.040	0
20090211 11:05	-0.1	-4.9	-0.1	81	-2.9	18	29	270	0.00	1011.111	109	0.000	0
20090211 11:10	0.0	-4.6	0.0	80	-3.0	16	32	270	0.00	1011.111	108	0.000	0
20090211 11:15	0.1	-4.8	0.1	80	-3.0	18	26	270	0.00	1011.043	155	0.000	1
20090211 11:20	0.1	-4.5	0.1	80	-2.9	16	32	270	0.00	1011.145	163	0.000	1
20090211 11:25	0.1	-4.5	0.1	81	-2.8	16	24	270	0.00	1011.416	197	0.000	1
20090211 11:30	0.1	-4.5	0.1	81	-2.8	16	27	270	0.00	1011.416	173	0.000	1
20090211 11:35	-0.1	-4.4	-0.1	84	-2.4	14	29	270	0.00	1011.449	161	0.000	1
20090211 11:40	-0.2	-4.9	-0.2	84	-2.6	16	27	270	0.00	1011.449	157	0.000	1
20090211 11:45	-0.2	-4.2	-0.2	85	-2.4	13	23	270	0.00	1011.416	208	0.000	1
20090211 11:50	-0.1	-4.1	-0.1	85	-2.3	13	23	270	0.00	1011.449	186	0.000	1
20090211 11:55	-0.1	-4.7	-0.1	83	-2.6	16	26	270	0.00	1011.449	178	0.000	1
20090211 12:00	0.0	-4.3	0.0	83	-2.5	14	23	270	0.00	1011.517	189	0.060	1
20090211 12:05	0.1	-3.5	0.1	83	-2.4	11	23	270	0.00	1011.551	187	0.000	1
20090211 12:10	0.2	-4.4	0.2	82	-2.5	16	24	270	0.00	1011.551	175	0.000	1
20090211 12:15	0.2	-4.4	0.2	81	-2.7	16	32	270	0.00	1011.619	171	0.000	1
20090211 12:20	0.2	-4.3	0.2	81	-2.6	16	29	270	0.00	1011.585	181	0.000	1
20090211 12:25	0.4	-3.5	0.4	80	-2.7	13	29	270	0.00	1011.517	218	0.000	1
20090211 12:30	0.5	-4.2	0.5	78	-2.9	18	31	270	0.00	1011.449	236	0.000	1
20090211 12:35	0.6	-3.5	0.6	78	-2.8	14	31	270	0.00	1011.551	219	0.000	1
20090211 12:40	0.7	-3.7	0.7	76	-3.0	16	39	270	0.00	1011.551	192	0.000	1
20090211 12:45	0.8	-3.3	0.8	76	-3.0	14	24	270	0.00	1011.619	219	0.000	1
20090211 12:50	0.8	-3.6	0.8	75	-3.1	16	31	270	0.00	1011.517	245	0.000	1
20090211 12:55	0.8	-3.8	0.8	74	-3.3	18	31	270	0.00	1011.416	307	0.000	1
20090211 13:00	0.9	-3.7	0.9	73	-3.3	18	31	270	0.00	1011.551	272	0.080	1
20090211 13:05	0.8	-4.3	0.8	74	-3.3	21	50	315	0.00	1011.483	211	0.000	1
20090211 13:10	0.8	-3.8	0.8	74	-3.3	18	34	292	0.00	1011.551	253	0.000	1
20090211 13:15	0.9	-3.1	0.9	73	-3.3	14	27	270	0.00	1011.483	254	0.000	1
20090211 13:20	0.9	-3.4	0.9	72	-3.5	16	32	292	0.00	1011.449	246	0.000	1
20090211 13:25	1.0	-3.9	1.0	72	-3.5	19	37	270	0.00	1011.585	184	0.000	1
20090211 13:30	0.8	-3.9	0.8	75	-3.1	18	34	270	0.00	1011.517	167	0.000	1
20090211 13:35	0.7	-3.2	0.7	78	-2.7	13	24	270	0.00	1011.619	171	0.000	1
20090211 13:40	0.4	-2.7	0.4	82	-2.3	10	19	270	0.00	1011.686	161	0.000	1
20090211 13:45	0.1	-3.1	0.1	83	-2.4	10	21	247	0.00	1011.822	180	0.000	1
20090211 13:50	-0.1	-3.7	-0.1	84	-2.4	11	24	270	0.00	1011.788	221	0.000	1
20090211 13:55	0.0	-3.6	0.0	84	-2.4	11	21	270	0.00	1011.788	246	0.000	1
20090211 14:00	0.2	-3.8	0.2	83	-2.4	13	21	270	0.00	1011.822	281	0.080	1
20090211 14:05	0.3	-3.9	0.3	82	-2.4	14	24	270	0.00	1011.856	295	0.000	1
20090211 14:10	0.6	-2.9	0.6	81	-2.3	11	19	247	0.00	1011.788	246	0.000	1
20090211 14:15	0.7	-2.8	0.7	80	-2.4	11	21	270	0.00	1011.720	104	0.000	0
20090211 14:20	0.7	-1.9	0.7	80	-2.3	8	23	270	0.00	1011.788	86	0.000	0
20090211 14:25	0.8	-2.6	0.8	78	-2.6	11	24	270	0.00	1011.788	109	0.000	0
20090211 14:30	0.8	-4.3	0.8	71	-3.8	21	37	292	0.00	1011.585	158	0.000	1
20090211 14:35	0.8	-4.3	0.8	70	-4.0	21	37	315	0.00	1011.754	170	0.000	1
20090211 14:40	0.8	-4.4	0.8	70	-4.1	21	48	292	0.00	1011.822	101	0.000	0
20090211 14:45	0.3	-5.6	0.3	73	-4.0	26	43	292	0.00	1012.228	136	0.000	0
20090211 14:50	-0.2	-5.6	-0.2	78	-3.5	21	50	292	0.00	1012.262	160	0.000	0
20090211 14:55	-0.7	-5.4	-0.7	82	-3.4	16	40	270	0.00	1012.364	78	0.000	0
20090211 15:00	-0.9	-4.3	-0.9	83	-3.4	10	19	292	0.00	1012.364	123	0.060	0
20090211 15:05	-0.8	-4.6	-0.8	83	-3.4	11	23	270	0.00	1012.431	118	0.000	0
20090211 15:10	-0.7	-4.4	-0.7	82	-3.4	11	23	270	0.00	1012.465	92	0.000	0
20090211 15:15	-0.6	-4.3	-0.6	83	-3.1	11	18	270	0.00	1012.533	140	0.000	0
20090211 15:20	-0.5	-4.2	-0.5	83	-3.0	11	19	270	0.00	1012.601	136	0.000	0
20090211 15:25	-0.4	-3.2	-0.4	83	-2.9	8	18	270	0.00	1012.635	130	0.000	0
20090211 15:30	-0.3	-3.5	-0.3	83	-2.8	10	19	270	0.00	1012.499	116	0.000	0
20090211 15:35	-0.3	-3.1	-0.3	82	-3.0	8	18	270	0.00	1012.533	99	0.000	0
20090211 15:40	-0.2	-2.9	-0.2	82	-2.9	8	18	247	0.00	1012.567	104	0.000	0
20090211 15:45	-0.1	-3.3	-0.1	81	-2.9	10	24	292	0.00	1012.567	125	0.000	0
20090211 15:50	0.2	-3.4	0.2	77	-3.4	11	24	270	0.00	1012.635	95	0.000	0
20090211 15:55	0.3	-4.3	0.3	75	-3.6	16	31	292	0.00	1012.736	71	0.000	0
20090211 16:00	0.3	-4.2	0.3	71	-4.3	16	27	292	0.00	1012.669	43	0.040	0
20090211 16:05	0.3	-4.0	0.3	70	-4.5	14	27	270	0.00	1012.736	53	0.000	0
20090211 16:10	0.2	-3.7	0.2	76	-3.5	13	21	270	0.00	1012.939	68	0.000	0
20090211 16:15	0.1	-3.8	0.1	77	-3.4	13	24	270	0.00	1012.973	79	0.000	0
20090211 16:20	0.0	-2.7	0.0	79	-3.2	8	16	270	0.00	1012.973	55	0.000	0
20090211 16:25	-0.1	-2.3	-0.1	79	-3.3	6	16	247	0.00	1013.075	44	0.000	0
20090211 16:30	-0.2	-3.4	-0.2	80	-3.2	10	18	270	0.00	1013.109	47	0.000	0
20090211 16:35	-0.2	-3.4	-0.2	79	-3.4	10	16	270	0.00	1013.075	52	0.000	0
20090211 16:40	-0.1	-3.3	-0.1	78	-3.4	10	16	270	0.00	1013.075	48	0.000	0
20090211 16:45	0.0	-3.6	0.0	76	-3.7	11	27	270	0.00	1013.210	44	0.000	0
20090211 16:50	0.1	-3.8	0.1	74	-4.0	13	21	292	0.00	1013.210	36	0.000	0
20090211 16:55	0.2	-3.0	0.2	75	-3.7	10	19	270	0.00	1013.278	24	0.000	0
20090211 17:00	0.1	-4.2	0.1	76	-3.6	14	27	270	0.00	1013.414	14	0.020	0
20090211 17:05	-0.2	-4.2	-0.2	77	-3.7	13	21	270	0.00	1013.447	24	0.000	0
20090211 17:10	-0.6	-3.9	-0.6	79	-3.7	10	18	270	0.00	1013.617	19	0.000	0
20090211 17:15	-0.8	-4.2	-0.8	81	-3.7	10	19	270	0.00	1013.651	14	0.000	0
20090211 17:20	-1.0	-4.4	-1.0	82	-3.7	10	19	270	0.00	1013.684	10	0.000	0
20090211 17:25	-1.0	-4.4	-1.0	82	-3.7	10	19	270	0.00	1013.786	6	0.000	0
20090211 17:30	-0.9	-4.3	-0.9	82	-3.6	10	16	270	0.00	1013.820	0	0.000	0
20090211 17:35	-0.9	-4.3	-0.9	82	-3.6	10	16	270	0.00	1013.854	0	0.000	0
20090211 17:40	-0.8	-4.2	-0.8	81	-3.7	10	21	270	0.00	1013.854	0	0.000	0
20090211 17:45	-0.8	-4.2	-0.8	80	-3.8	10	19	270	0.00	1013.854	0	0.000	0
20090211 17:50	-0.8	-3.1	-0.8	80	-3.8	6	16	270	0.00	1013.888	0	0.000	0
20090211 17:55	-0.9	-3.3	-0.9	80	-4.0	6	18	292	0.00	1013.955	0	0.000	0
20090211 18:00	-0.9	-3.3	-0.9	80	-4.0	6	11	270	0.00	1014.023	0	0.020	0
20090211 18:05	-1.0	-3.3	-1.0	80	-4.0	6	16	270	0.00	1014.057	0	0.000	0
20090211 18:10	-1.1	-4.0	-1.1	80	-4.1	8	16	270	0.00	1014.057	0	0.000	0
20090211 18:15	-1.1	-3.5	-1.1	80	-4.1	6	11	292	0.00	1014.091	0	0.000	0
20090211 18:20	-1.2	-3.5	-1.2	81	-4.0	6	14	270	0.00	1014.226	0	0.000	0
20090211 18:25	-1.2	-1.2	-1.2	82	-3.9	5	10	270	0.00	1014.294	0	0.000	0
20090211 18:30	-1.3	-3.7	-1.3	82	-3.9	6	13	270	0.00	1014.294	0	0.000	0
20090211 18:35	-1.3	-3.7	-1.3	83	-3.8	6	11	270	0.00	1014.328	0	0.000	0
20090211 18:40	-1.3	-1.3	-1.3	83	-3.8	3	6	247	0.00	1014.362	0	0.000	0
20090211 18:45	-1.3	-3.7	-1.3	83	-3.8	6	14	247	0.00	1014.362	0	0.000	0
20090211 18:50	-1.3	-4.2	-1.3	83	-3.8	8	18	270	0.00	1014.429	0	0.000	0
20090211 18:55	-1.2	-4.7	-1.2	82	-3.9	10	18	270	0.00	1014.396	0	0.000	0
20090211 19:00	-1.2	-4.1	-1.2	82	-3.8	8	18	270	0.00	1014.497	0	0.020	0
20090211 19:05	-1.2	-3.6	-1.2	82	-3.9	6	16	270	0.00	1014.633	0	0.000	0
20090211 19:10	-1.2	-4.2	-1.2	82	-3.9	8	16	270	0.00	1014.633	0	0.000	0
20090211 19:15	-1.3	-4.2	-1.3	83	-3.8	8	14	270	0.00	1014.734	0	0.000	0
20090211 19:20	-1.3	-3.7	-1.3	83	-3.8	6	14	270	0.00	1014.666	0	0.000	0
20090211 19:25	-1.3	-3.7	-1.3	83	-3.8	6	10	247	0.00	1014.666	0	0.000	0
20090211 19:30	-1.4	-1.4	-1.4	83	-3.9	5	10	247	0.00	1014.666	0	0.000	0
20090211 19:35	-1.4	-1.4	-1.4	83	-3.9	5	11	247	0.00	1014.700	0	0.000	0
20090211 19:40	-1.4	-1.4	-1.4	83	-3.9	5	13	247	0.00	1014.768	0	0.000	0
20090211 19:45	-1.3	-3.7	-1.3	83	-3.8	6	11	247	0.00	1014.734	0	0.000	0
20090211 19:50	-1.3	-1.3	-1.3	84	-3.7	5	11	270	0.00	1014.666	0	0.000	0
20090211 19:55	-1.3	-1.3	-1.3	84	-3.7	5	10	247	0.00	1014.734	0	0.000	0
20090211 20:00	-1.3	-1.3	-1.3	84	-3.7	5	10	247	0.00	1014.700	0	0.000	0
20090211 20:05	-1.4	-3.8	-1.4	83	-3.9	6	10	247	0.00	1014.700	0	0.000	0
20090211 20:10	-1.4	-1.4	-1.4	84	-3.8	5	8	247	0.00	1014.734	0	0.000	0
20090211 20:15	-1.4	-1.4	-1.4	83	-4.0	5	10	247	0.00	1014.700	0	0.000	0
20090211 20:20	-1.5	-1.5	-1.5	83	-4.0	5	10	247	0.00	1014.666	0	0.000	0
20090211 20:25	-1.5	-1.5	-1.5	83	-4.0	5	10	270	0.00	1014.700	0	0.000	0
20090211 20:30	-1.6	-1.6	-1.6	83	-4.1	5	10	247	0.00	1014.666	0	0.000	0
20090211 20:35	-1.5	-1.5	-1.5	83	-4.0	5	8	247	0.00	1014.734	0	0.000	0
20090211 20:40	-1.6	-1.6	-1.6	83	-4.1	5	10	247	0.00	1014.734	0	0.000	0
20090211 20:45	-1.6	-4.0	-1.6	83	-4.1	6	11	270	0.00	1014.768	0	0.000	0
20090211 20:50	-1.5	-3.9	-1.5	83	-4.0	6	11	247	0.00	1014.768	0	0.000	0
20090211 20:55	-1.4	-3.8	-1.4	83	-4.0	6	14	225	0.00	1014.734	0	0.000	0
20090211 21:00	-1.4	-3.8	-1.4	83	-3.9	6	11	247	0.00	1014.802	0	0.000	0
20090211 21:05	-1.3	-3.7	-1.3	83	-3.8	6	11	247	0.00	1014.633	0	0.000	0
20090211 21:10	-1.3	-4.2	-1.3	83	-3.8	8	16	247	0.00	1014.666	0	0.000	0
20090211 21:15	-1.3	-3.7	-1.3	83	-3.8	6	14	247	0.00	1014.666	0	0.000	0
20090211 21:20	-1.3	-4.2	-1.3	83	-3.8	8	19	247	0.00	1014.768	0	0.000	0
20090211 21:25	-1.2	-4.2	-1.2	83	-3.7	8	16	247	0.00	1014.734	0	0.000	0
20090211 21:30	-1.2	-1.2	-1.2	83	-3.7	5	10	247	0.00	1014.768	0	0.000	0
20090211 21:35	-1.2	-3.6	-1.2	83	-3.7	6	14	247	0.00	1014.768	0	0.000	0
20090211 21:40	-1.2	-3.6	-1.2	83	-3.7	6	14	247	0.00	1014.768	0	0.000	0
20090211 21:45	-1.2	-3.5	-1.2	83	-3.7	6	16	247	0.00	1014.768	0	0.000	0
20090211 21:50	-1.2	-4.1	-1.2	83	-3.7	8	16	247	0.00	1014.768	0	0.000	0
20090211 21:55	-1.1	-1.1	-1.1	83	-3.6	5	11	247	0.00	1014.666	0	0.000	0
20090211 22:00	-1.1	-1.1	-1.1	83	-3.6	5	11	247	0.00	1014.734	0	0.000	0
20090211 22:05	-1.1	-3.4	-1.1	82	-3.7	6	11	247	0.00	1014.633	0	0.000	0
20090211 22:10	-1.1	-3.4	-1.1	82	-3.7	6	11	247	0.00	1014.531	0	0.000	0
20090211 22:15	-1.1	-3.4	-1.1	82	-3.7	6	14	247	0.00	1014.497	0	0.000	0
20090211 22:20	-1.0	-3.3	-1.0	81	-3.8	6	18	247	0.00	1014.599	0	0.000	0
20090211 22:25	-1.0	-3.3	-1.0	81	-3.8	6	16	247	0.00	1014.599	0	0.000	0
20090211 22:30	-0.9	-3.3	-0.9	81	-3.8	6	18	247	0.00	1014.565	0	0.000	0
20090211 22:35	-0.9	-3.3	-0.9	81	-3.8	6	16	247	0.00	1014.565	0	0.000	0
20090211 22:40	-0.9	-3.8	-0.9	80	-3.9	8	18	247	0.00	1014.565	0	0.000	0
20090211 22:45	-0.9	-3.2	-0.9	80	-3.9	6	14	247	0.00	1014.565	0	0.000	0
20090211 22:50	-0.9	-3.2	-0.9	80	-3.9	6	11	247	0.00	1014.565	0	0.000	0
20090211 22:55	-0.9	-3.8	-0.9	80	-3.9	8	19	247	0.00	1014.531	0	0.000	0
20090211 23:00	-0.9	-3.8	-0.9	80	-3.9	8	18	247	0.00	1014.497	0	0.020	0
20090211 23:05	-0.9	-3.2	-0.9	80	-3.9	6	18	247	0.00	1014.531	0	0.000	0
20090211 23:10	-0.9	-3.2	-0.9	80	-3.9	6	16	247	0.00	1014.531	0	0.000	0
20090211 23:15	-0.9	-3.8	-0.9	80	-4.0	8	18	247	0.00	1014.565	0	0.000	0
20090211 23:20	-0.9	-3.3	-0.9	81	-3.8	6	16	247	0.00	1014.463	0	0.000	0
20090211 23:25	-1.1	-4.0	-1.1	81	-3.9	8	19	247	0.00	1014.429	0	0.000	0
20090211 23:30	-1.2	-4.1	-1.2	82	-3.8	8	18	247	0.00	1014.429	0	0.000	0
20090211 23:35	-1.2	-3.5	-1.2	81	-4.0	6	16	247	0.00	1014.463	0	0.000	0
20090211 23:40	-1.2	-3.5	-1.2	81	-4.0	6	16	247	0.00	1014.463	0	0.000	0
20090211 23:45	-1.2	-4.2	-1.2	81	-4.1	8	16	247	0.00	1014.429	0	0.000	0
20090211 23:50	-1.3	-3.7	-1.3	81	-4.1	6	14	247	0.00	1014.396	0	0.000	0
20090211 23:55	-1.4	-4.9	-1.4	82	-4.1	10	16	247	0.00	1014.429	0	0.000	0
20090211 24:00	-1.5	-3.9	-1.5	83	-4.0	6	11	225	0.00	1014.531	0	0.020	0



Please note the license to use and transfer of this data:
http://creativecommons.org/licenses/by-nc-sa/3.0/deed.en

Bitte beachten sie die Lizenz zur Verwertung und Weitergabe der Daten:
http://creativecommons.org/licenses/by-nc-sa/3.0/deed.de

zurück zur Übersicht der Archivdaten (Monats und Tagesdaten)

Cookies helfen bei der Bereitstellung von Inhalten. Durch die Nutzung dieser Seiten erklärst du dich damit einverstanden, dass Cookies auf deinem Rechner gespeichert werden. Weitere Information